QTR3R VGHS-OTHH
Flight info
| Callsign | QTR3R |
|---|---|
| Flight time | N/A |
| Altitude | 32000 |
| Route | IKOGU A462 CEA G450 JJS/N0501F340 A791 BPL L639 RASKI L301 VAXIM/N0491F360 L301 RAGMA N571 MENSA DCT EGTAG Q576 REVAV/N0426F220 Q576 RORON M430 TOSNA |
| Aircraft | B77W/H-SDE1E3FGHIJ5M1P2RWXYZ/LB1D1 |
Departure
| Time | 2026-05-04 07:18 |
|---|---|
| Airport | Hazrat Shahjalal International Airport (VGHS) |
Arrival
| Time | N/A |
|---|---|
| Airport | Hamad International Airport (OTHH) |
| Time | Latitude | Longitude | Altitude | Speed | Heading |
|---|---|---|---|---|---|
| 2026-05-04 06:50 | 23.84677 | 90.40466 | 41 ft | 0 kts | 53° |
| 2026-05-04 07:05 | 23.84675 | 90.40463 | 40 ft | 3 kts | 53° |
| 2026-05-04 07:06 | 23.84645 | 90.40417 | 38 ft | 4 kts | 49° |
| 2026-05-04 07:06 | 23.84627 | 90.40405 | 38 ft | 4 kts | 343° |
| 2026-05-04 07:06 | 23.84605 | 90.40419 | 38 ft | 4 kts | 324° |
| 2026-05-04 07:07 | 23.84600 | 90.40423 | 38 ft | 0 kts | 325° |
| 2026-05-04 07:08 | 23.84601 | 90.40422 | 38 ft | 0 kts | 325° |
| 2026-05-04 07:09 | 23.84624 | 90.40405 | 38 ft | 6 kts | 325° |
| 2026-05-04 07:09 | 23.84658 | 90.40378 | 41 ft | 6 kts | 324° |
| 2026-05-04 07:09 | 23.84690 | 90.40350 | 41 ft | 6 kts | 309° |
| 2026-05-04 07:09 | 23.84688 | 90.40305 | 41 ft | 6 kts | 242° |
| 2026-05-04 07:10 | 23.84660 | 90.40266 | 39 ft | 7 kts | 234° |
| 2026-05-04 07:10 | 23.84644 | 90.40221 | 41 ft | 7 kts | 271° |
| 2026-05-04 07:12 | 23.85069 | 90.39864 | 41 ft | 13 kts | 324° |
| 2026-05-04 07:12 | 23.85140 | 90.39807 | 41 ft | 13 kts | 324° |
| 2026-05-04 07:12 | 23.85212 | 90.39751 | 41 ft | 13 kts | 324° |
| 2026-05-04 07:12 | 23.85283 | 90.39694 | 41 ft | 13 kts | 323° |
| 2026-05-04 07:13 | 23.85355 | 90.39637 | 41 ft | 13 kts | 324° |
| 2026-05-04 07:13 | 23.85426 | 90.39580 | 41 ft | 13 kts | 324° |
| 2026-05-04 07:13 | 23.85498 | 90.39523 | 41 ft | 13 kts | 324° |
| 2026-05-04 07:14 | 23.85754 | 90.39319 | 41 ft | 3 kts | 324° |
| 2026-05-04 07:14 | 23.85766 | 90.39304 | 41 ft | 3 kts | 300° |
| 2026-05-04 07:15 | 23.85767 | 90.39276 | 41 ft | 5 kts | 258° |
| 2026-05-04 07:15 | 23.85749 | 90.39244 | 39 ft | 5 kts | 235° |
| 2026-05-04 07:15 | 23.85720 | 90.39200 | 41 ft | 8 kts | 234° |
| 2026-05-04 07:15 | 23.85687 | 90.39150 | 41 ft | 8 kts | 234° |
| 2026-05-04 07:16 | 23.85653 | 90.39100 | 41 ft | 8 kts | 233° |
| 2026-05-04 07:16 | 23.85619 | 90.39050 | 40 ft | 8 kts | 233° |
| 2026-05-04 07:16 | 23.85585 | 90.39000 | 40 ft | 8 kts | 233° |
| 2026-05-04 07:16 | 23.85551 | 90.38950 | 40 ft | 8 kts | 233° |
| 2026-05-04 07:17 | 23.85517 | 90.38901 | 40 ft | 8 kts | 233° |
| 2026-05-04 07:17 | 23.85478 | 90.38873 | 40 ft | 7 kts | 176° |
| 2026-05-04 07:17 | 23.85431 | 90.38908 | 40 ft | 14 kts | 143° |
| 2026-05-04 07:17 | 23.85229 | 90.39070 | 39 ft | 70 kts | 144° |
| 2026-05-04 07:18 | 23.84632 | 90.39544 | 42 ft | 141 kts | 144° |
| 2026-05-04 07:18 | 23.83683 | 90.40302 | 98 ft | 188 kts | 143° |
| 2026-05-04 07:18 | 23.82613 | 90.41159 | 673 ft | 196 kts | 142° |
| 2026-05-04 07:18 | 23.81505 | 90.42049 | 1313 ft | 198 kts | 143° |
| 2026-05-04 07:19 | 23.80344 | 90.42966 | 1631 ft | 216 kts | 143° |
| 2026-05-04 07:19 | 23.79061 | 90.43977 | 1808 ft | 240 kts | 144° |
| 2026-05-04 07:19 | 23.77651 | 90.45086 | 2171 ft | 255 kts | 144° |
| 2026-05-04 07:19 | 23.76196 | 90.46237 | 2820 ft | 261 kts | 145° |
| 2026-05-04 07:20 | 23.74715 | 90.47410 | 3528 ft | 264 kts | 146° |
| 2026-05-04 07:20 | 23.73209 | 90.48603 | 4189 ft | 270 kts | 145° |
| 2026-05-04 07:20 | 23.71677 | 90.49813 | 4877 ft | 274 kts | 146° |
| 2026-05-04 07:20 | 23.70030 | 90.50832 | 5409 ft | 275 kts | 167° |
| 2026-05-04 07:22 | 23.60495 | 90.41717 | 9736 ft | 281 kts | 234° |
| 2026-05-04 07:22 | 23.59388 | 90.39967 | 10203 ft | 282 kts | 247° |
| 2026-05-04 07:23 | 23.58670 | 90.37908 | 10392 ft | 301 kts | 254° |
| 2026-05-04 07:23 | 23.58073 | 90.35667 | 10543 ft | 322 kts | 255° |
| 2026-05-04 07:23 | 23.57453 | 90.33236 | 10719 ft | 344 kts | 255° |
| 2026-05-04 07:23 | 23.56782 | 90.30658 | 11008 ft | 361 kts | 255° |
| 2026-05-04 07:24 | 23.56069 | 90.27996 | 11507 ft | 370 kts | 254° |
| 2026-05-04 07:24 | 23.55324 | 90.25294 | 12100 ft | 374 kts | 254° |
| 2026-05-04 07:24 | 23.54557 | 90.22570 | 12738 ft | 377 kts | 253° |
| 2026-05-04 07:24 | 23.53778 | 90.19832 | 13359 ft | 380 kts | 253° |
| 2026-05-04 07:25 | 23.52986 | 90.17071 | 13949 ft | 384 kts | 253° |
| 2026-05-04 07:26 | 23.47228 | 89.97134 | 17739 ft | 405 kts | 252° |
| 2026-05-04 07:27 | 23.46377 | 89.94196 | 18261 ft | 408 kts | 252° |
| 2026-05-04 07:27 | 23.45519 | 89.91236 | 18722 ft | 411 kts | 252° |
| 2026-05-04 07:27 | 23.44656 | 89.88260 | 19179 ft | 414 kts | 252° |
| 2026-05-04 07:27 | 23.43786 | 89.85264 | 19640 ft | 416 kts | 252° |
| 2026-05-04 07:28 | 23.42910 | 89.82247 | 20082 ft | 419 kts | 252° |
| 2026-05-04 07:28 | 23.42026 | 89.79206 | 20510 ft | 423 kts | 252° |
| 2026-05-04 07:28 | 23.41135 | 89.76142 | 20911 ft | 427 kts | 252° |
| 2026-05-04 07:28 | 23.40235 | 89.73051 | 21369 ft | 430 kts | 252° |
| 2026-05-04 07:29 | 23.39329 | 89.69941 | 21827 ft | 432 kts | 252° |
| 2026-05-04 07:29 | 23.38369 | 89.66829 | 22238 ft | 435 kts | 249° |
| 2026-05-04 07:29 | 23.37136 | 89.63814 | 22626 ft | 438 kts | 243° |
| 2026-05-04 07:29 | 23.35626 | 89.60918 | 23019 ft | 442 kts | 238° |
| 2026-05-04 07:30 | 23.33935 | 89.58118 | 23397 ft | 444 kts | 237° |
| 2026-05-04 07:30 | 23.32226 | 89.55305 | 23723 ft | 447 kts | 237° |
| 2026-05-04 07:30 | 23.30512 | 89.52479 | 24075 ft | 448 kts | 237° |
| 2026-05-04 07:30 | 23.28797 | 89.49642 | 24455 ft | 449 kts | 237° |
| 2026-05-04 07:31 | 23.27085 | 89.46798 | 24823 ft | 450 kts | 237° |
| 2026-05-04 07:31 | 23.25371 | 89.43947 | 25177 ft | 451 kts | 237° |
| 2026-05-04 07:33 | 23.13239 | 89.23750 | 27467 ft | 462 kts | 237° |
| 2026-05-04 07:33 | 23.11478 | 89.20826 | 27779 ft | 463 kts | 237° |
| 2026-05-04 07:33 | 23.09713 | 89.17896 | 28086 ft | 464 kts | 237° |
| 2026-05-04 07:33 | 23.07940 | 89.14954 | 28342 ft | 466 kts | 237° |
| 2026-05-04 07:34 | 23.06160 | 89.12003 | 28599 ft | 468 kts | 237° |
| 2026-05-04 07:34 | 23.04372 | 89.09041 | 28874 ft | 470 kts | 237° |
| 2026-05-04 07:34 | 23.02579 | 89.06071 | 29150 ft | 471 kts | 237° |
| 2026-05-04 07:34 | 23.00782 | 89.03096 | 29402 ft | 472 kts | 237° |
| 2026-05-04 07:35 | 22.98985 | 89.00123 | 29739 ft | 471 kts | 237° |
| 2026-05-04 07:35 | 22.97191 | 88.97157 | 30106 ft | 469 kts | 237° |
| 2026-05-04 07:35 | 22.95407 | 88.94208 | 30441 ft | 467 kts | 237° |
| 2026-05-04 07:35 | 22.93625 | 88.91265 | 30740 ft | 466 kts | 237° |
| 2026-05-04 07:36 | 22.91857 | 88.88318 | 31019 ft | 466 kts | 238° |
| 2026-05-04 07:36 | 22.90164 | 88.85328 | 31309 ft | 465 kts | 239° |
| 2026-05-04 07:38 | 22.78603 | 88.64345 | 31863 ft | 460 kts | 239° |
| 2026-05-04 07:38 | 22.76950 | 88.61380 | 31849 ft | 460 kts | 239° |
| 2026-05-04 07:38 | 22.73646 | 88.55452 | 31859 ft | 460 kts | 239° |
| 2026-05-04 07:39 | 22.70346 | 88.49501 | 31850 ft | 460 kts | 242° |
| 2026-05-04 07:39 | 22.69088 | 88.46318 | 31860 ft | 461 kts | 253° |
| 2026-05-04 07:39 | 22.68343 | 88.42940 | 31876 ft | 463 kts | 259° |
| 2026-05-04 07:40 | 22.68140 | 88.35975 | 31875 ft | 465 kts | 272° |
| 2026-05-04 07:40 | 22.68672 | 88.28968 | 31862 ft | 468 kts | 272° |
| 2026-05-04 07:41 | 22.69193 | 88.21938 | 31861 ft | 469 kts | 272° |
| 2026-05-04 07:41 | 22.69673 | 88.14895 | 31855 ft | 469 kts | 272° |
| 2026-05-04 07:42 | 22.70128 | 88.07901 | 31860 ft | 468 kts | 272° |
| 2026-05-04 07:42 | 22.70578 | 88.00878 | 31851 ft | 467 kts | 272° |
| 2026-05-04 07:43 | 22.71025 | 87.93870 | 31854 ft | 466 kts | 272° |
| 2026-05-04 07:43 | 22.71469 | 87.86878 | 31851 ft | 465 kts | 272° |
| 2026-05-04 07:44 | 22.71910 | 87.79895 | 31854 ft | 464 kts | 272° |
| 2026-05-04 07:44 | 22.72347 | 87.72917 | 31852 ft | 464 kts | 272° |
| 2026-05-04 07:45 | 22.72781 | 87.65940 | 31852 ft | 464 kts | 272° |
| 2026-05-04 07:45 | 22.73143 | 87.60092 | 31852 ft | 464 kts | 272° |
| 2026-05-04 07:46 | 22.73569 | 87.53159 | 31849 ft | 465 kts | 272° |
| 2026-05-04 07:46 | 22.73995 | 87.46172 | 31849 ft | 465 kts | 272° |
| 2026-05-04 07:47 | 22.74418 | 87.39188 | 31844 ft | 465 kts | 272° |
| 2026-05-04 07:49 | 22.76079 | 87.11241 | 31844 ft | 464 kts | 271° |
| 2026-05-04 07:49 | 22.76486 | 87.04271 | 31846 ft | 463 kts | 271° |
| 2026-05-04 07:50 | 22.76889 | 86.97319 | 31845 ft | 462 kts | 271° |
| 2026-05-04 07:50 | 22.77288 | 86.90380 | 31857 ft | 461 kts | 271° |
| 2026-05-04 07:51 | 22.77683 | 86.83456 | 31853 ft | 460 kts | 271° |
| 2026-05-04 07:51 | 22.78071 | 86.76591 | 31860 ft | 459 kts | 271° |
| 2026-05-04 07:52 | 22.78459 | 86.69686 | 31859 ft | 459 kts | 271° |
| 2026-05-04 07:52 | 22.78847 | 86.62731 | 31872 ft | 459 kts | 271° |
| 2026-05-04 07:54 | 22.80359 | 86.35068 | 31884 ft | 460 kts | 271° |
| 2026-05-04 07:55 | 22.80727 | 86.28199 | 31889 ft | 460 kts | 271° |
| 2026-05-04 07:55 | 22.81095 | 86.21284 | 31856 ft | 459 kts | 271° |
| 2026-05-04 07:56 | 22.81493 | 86.14377 | 31851 ft | 459 kts | 272° |
| 2026-05-04 07:56 | 22.82072 | 86.07484 | 31858 ft | 459 kts | 273° |
| 2026-05-04 07:57 | 22.82681 | 86.00591 | 31868 ft | 459 kts | 273° |
| 2026-05-04 07:57 | 22.83265 | 85.93695 | 31876 ft | 460 kts | 273° |
| 2026-05-04 07:58 | 22.83832 | 85.86794 | 31892 ft | 460 kts | 273° |
| 2026-05-04 07:58 | 22.84394 | 85.79887 | 31904 ft | 460 kts | 273° |
| 2026-05-04 07:59 | 22.84952 | 85.72982 | 31915 ft | 460 kts | 273° |
| 2026-05-04 07:59 | 22.85508 | 85.66075 | 31918 ft | 460 kts | 273° |
| 2026-05-04 08:00 | 22.86062 | 85.59174 | 31920 ft | 459 kts | 272° |
| 2026-05-04 08:02 | 22.88239 | 85.31632 | 31931 ft | 459 kts | 272° |
| 2026-05-04 08:02 | 22.88778 | 85.24728 | 31921 ft | 460 kts | 272° |
| 2026-05-04 08:03 | 22.89313 | 85.17819 | 31917 ft | 460 kts | 272° |
| 2026-05-04 08:03 | 22.89847 | 85.10911 | 31912 ft | 460 kts | 272° |
| 2026-05-04 08:04 | 22.90378 | 85.03998 | 31939 ft | 460 kts | 272° |
| 2026-05-04 08:04 | 22.90906 | 84.97089 | 31929 ft | 460 kts | 272° |
| 2026-05-04 08:05 | 22.91432 | 84.90182 | 31922 ft | 459 kts | 272° |
| 2026-05-04 08:05 | 22.91953 | 84.83280 | 31921 ft | 459 kts | 272° |
| 2026-05-04 08:06 | 22.92472 | 84.76377 | 31927 ft | 459 kts | 272° |
| 2026-05-04 08:06 | 22.92987 | 84.69465 | 32008 ft | 462 kts | 272° |
| 2026-05-04 08:08 | 22.94755 | 84.45505 | 33874 ft | 454 kts | 272° |
| 2026-05-04 08:08 | 22.95003 | 84.42095 | 33913 ft | 453 kts | 272° |
| 2026-05-04 08:11 | 22.97179 | 84.11737 | 33919 ft | 451 kts | 271° |
| 2026-05-04 08:11 | 22.97745 | 84.01502 | 33913 ft | 455 kts | 270° |
| 2026-05-04 08:12 | 22.98100 | 83.94644 | 33916 ft | 456 kts | 270° |
| 2026-05-04 08:12 | 22.98464 | 83.87768 | 33901 ft | 456 kts | 270° |
| 2026-05-04 08:13 | 22.98830 | 83.80890 | 33932 ft | 456 kts | 270° |
| 2026-05-04 08:13 | 22.99194 | 83.74021 | 33913 ft | 455 kts | 270° |
| 2026-05-04 08:14 | 22.99551 | 83.67219 | 33901 ft | 453 kts | 270° |
| 2026-05-04 08:16 | 23.00947 | 83.40021 | 33895 ft | 450 kts | 270° |
| 2026-05-04 08:16 | 23.01288 | 83.33234 | 33890 ft | 451 kts | 270° |
| 2026-05-04 08:17 | 23.01626 | 83.26438 | 33877 ft | 451 kts | 270° |
| 2026-05-04 08:17 | 23.01962 | 83.19636 | 33873 ft | 452 kts | 270° |
| 2026-05-04 08:19 | 23.03280 | 82.92373 | 33850 ft | 453 kts | 270° |
| 2026-05-04 08:20 | 23.03602 | 82.85547 | 33836 ft | 453 kts | 270° |
| 2026-05-04 08:20 | 23.03922 | 82.78718 | 33832 ft | 453 kts | 270° |
| 2026-05-04 08:21 | 23.04237 | 82.71935 | 33838 ft | 453 kts | 270° |
| 2026-05-04 08:21 | 23.04551 | 82.65113 | 33824 ft | 452 kts | 270° |
| 2026-05-04 08:22 | 23.04861 | 82.58295 | 33822 ft | 452 kts | 270° |
| 2026-05-04 08:24 | 23.06072 | 82.31048 | 33812 ft | 452 kts | 270° |
| 2026-05-04 08:24 | 23.06368 | 82.24228 | 33809 ft | 452 kts | 270° |
| 2026-05-04 08:25 | 23.06662 | 82.17404 | 33817 ft | 453 kts | 270° |
| 2026-05-04 08:25 | 23.07028 | 82.10576 | 33814 ft | 453 kts | 271° |
| 2026-05-04 08:27 | 23.08759 | 81.83239 | 33819 ft | 454 kts | 271° |
| 2026-05-04 08:28 | 23.09173 | 81.76402 | 33818 ft | 454 kts | 271° |
| 2026-05-04 08:28 | 23.09584 | 81.69564 | 33814 ft | 454 kts | 270° |
| 2026-05-04 08:29 | 23.09993 | 81.62729 | 33810 ft | 454 kts | 270° |
| 2026-05-04 08:31 | 23.11598 | 81.35353 | 33816 ft | 456 kts | 270° |
| 2026-05-04 08:33 | 23.13165 | 81.07831 | 33788 ft | 456 kts | 271° |
| 2026-05-04 08:35 | 23.14681 | 80.80340 | 33813 ft | 456 kts | 270° |
| 2026-05-04 08:35 | 23.15054 | 80.73468 | 33804 ft | 456 kts | 270° |
| 2026-05-04 08:37 | 23.16291 | 80.50598 | 33815 ft | 454 kts | 270° |
| 2026-05-04 08:38 | 23.16655 | 80.43748 | 33812 ft | 454 kts | 270° |
| 2026-05-04 08:38 | 23.17015 | 80.36901 | 33812 ft | 454 kts | 270° |
| 2026-05-04 08:40 | 23.18427 | 80.09524 | 33806 ft | 454 kts | 270° |
| 2026-05-04 08:41 | 23.18761 | 80.02710 | 33803 ft | 455 kts | 270° |
| 2026-05-04 08:41 | 23.19057 | 79.95845 | 33803 ft | 455 kts | 270° |
| 2026-05-04 08:42 | 23.19348 | 79.88978 | 33804 ft | 455 kts | 270° |
| 2026-05-04 08:42 | 23.19641 | 79.82110 | 33807 ft | 455 kts | 270° |
| 2026-05-04 08:43 | 23.19932 | 79.75242 | 33819 ft | 455 kts | 270° |
| 2026-05-04 08:43 | 23.20221 | 79.68377 | 33819 ft | 455 kts | 270° |
| 2026-05-04 08:44 | 23.20506 | 79.61516 | 33820 ft | 454 kts | 270° |
| 2026-05-04 08:46 | 23.21126 | 79.34113 | 33817 ft | 453 kts | 268° |
| 2026-05-04 08:46 | 23.21247 | 79.27273 | 33823 ft | 453 kts | 268° |
| 2026-05-04 08:47 | 23.21366 | 79.20481 | 33828 ft | 452 kts | 269° |
| 2026-05-04 08:47 | 23.21483 | 79.13646 | 33819 ft | 452 kts | 268° |
| 2026-05-04 08:48 | 23.21596 | 79.06810 | 33828 ft | 452 kts | 268° |
| 2026-05-04 08:48 | 23.21706 | 78.99976 | 33821 ft | 452 kts | 268° |
| 2026-05-04 08:49 | 23.21813 | 78.93141 | 33829 ft | 452 kts | 268° |
| 2026-05-04 08:50 | 23.22248 | 78.69219 | 33827 ft | 453 kts | 270° |
| 2026-05-04 08:51 | 23.22605 | 78.62380 | 33835 ft | 453 kts | 271° |
| 2026-05-04 08:51 | 23.22970 | 78.55538 | 33827 ft | 453 kts | 270° |
| 2026-05-04 08:52 | 23.23308 | 78.48692 | 33834 ft | 453 kts | 270° |
| 2026-05-04 08:52 | 23.23630 | 78.41847 | 33827 ft | 453 kts | 270° |
| 2026-05-04 08:54 | 23.24882 | 78.14448 | 33825 ft | 454 kts | 270° |
| 2026-05-04 08:55 | 23.25188 | 78.07592 | 33818 ft | 454 kts | 270° |
| 2026-05-04 08:55 | 23.25492 | 78.00736 | 33824 ft | 454 kts | 270° |
| 2026-05-04 09:01 | 23.28013 | 77.28867 | 33813 ft | 451 kts | 263° |
| 2026-05-04 09:01 | 23.27500 | 77.22058 | 33802 ft | 452 kts | 264° |
| 2026-05-04 09:02 | 23.27002 | 77.15238 | 33808 ft | 453 kts | 264° |
| 2026-05-04 09:02 | 23.26512 | 77.08406 | 33811 ft | 454 kts | 264° |
| 2026-05-04 09:03 | 23.26023 | 77.01560 | 33810 ft | 454 kts | 264° |
| 2026-05-04 09:03 | 23.25531 | 76.94710 | 33817 ft | 455 kts | 264° |
| 2026-05-04 09:04 | 23.25035 | 76.87860 | 33812 ft | 455 kts | 264° |
| 2026-05-04 09:04 | 23.24536 | 76.81005 | 33812 ft | 455 kts | 264° |
| 2026-05-04 09:05 | 23.24034 | 76.74150 | 33817 ft | 455 kts | 264° |
| 2026-05-04 09:05 | 23.23528 | 76.67296 | 33817 ft | 455 kts | 264° |
| 2026-05-04 09:06 | 23.23020 | 76.60444 | 33818 ft | 455 kts | 264° |
| 2026-05-04 09:08 | 23.20957 | 76.33039 | 33823 ft | 455 kts | 264° |
| 2026-05-04 09:08 | 23.20437 | 76.26230 | 33818 ft | 455 kts | 264° |
| 2026-05-04 09:09 | 23.19911 | 76.19373 | 33824 ft | 455 kts | 264° |
| 2026-05-04 09:09 | 23.19380 | 76.12503 | 33810 ft | 457 kts | 264° |
| 2026-05-04 09:10 | 23.18847 | 76.05622 | 33822 ft | 456 kts | 265° |
| 2026-05-04 09:10 | 23.18360 | 75.98746 | 33821 ft | 456 kts | 268° |
| 2026-05-04 09:11 | 23.18271 | 75.91859 | 33828 ft | 456 kts | 269° |
| 2026-05-04 09:11 | 23.18214 | 75.84967 | 33824 ft | 456 kts | 269° |
| 2026-05-04 09:12 | 23.18141 | 75.78076 | 33825 ft | 456 kts | 269° |
| 2026-05-04 09:14 | 23.17775 | 75.50418 | 33828 ft | 459 kts | 269° |
| 2026-05-04 09:14 | 23.17675 | 75.43484 | 33826 ft | 459 kts | 269° |
| 2026-05-04 09:15 | 23.17572 | 75.36552 | 33828 ft | 459 kts | 269° |
| 2026-05-04 09:15 | 23.17467 | 75.29660 | 33823 ft | 459 kts | 269° |
| 2026-05-04 09:17 | 23.16952 | 74.98403 | 33812 ft | 460 kts | 269° |
| 2026-05-04 09:18 | 23.16829 | 74.91456 | 33811 ft | 460 kts | 269° |
| 2026-05-04 09:18 | 23.16704 | 74.84507 | 33812 ft | 460 kts | 269° |
| 2026-05-04 09:19 | 23.16575 | 74.77559 | 33808 ft | 460 kts | 269° |
| 2026-05-04 09:19 | 23.16443 | 74.70607 | 33805 ft | 460 kts | 269° |
| 2026-05-04 09:20 | 23.16308 | 74.63661 | 33799 ft | 460 kts | 269° |
| 2026-05-04 09:20 | 23.16170 | 74.56714 | 33798 ft | 460 kts | 269° |
| 2026-05-04 09:21 | 23.16029 | 74.49765 | 33792 ft | 460 kts | 269° |
| 2026-05-04 09:21 | 23.15885 | 74.42816 | 33790 ft | 460 kts | 269° |
| 2026-05-04 09:22 | 23.15738 | 74.35865 | 33786 ft | 460 kts | 269° |
| 2026-05-04 09:22 | 23.15515 | 74.28917 | 33776 ft | 461 kts | 268° |
| 2026-05-04 09:23 | 23.15170 | 74.21964 | 33780 ft | 461 kts | 268° |
| 2026-05-04 09:23 | 23.14817 | 74.15006 | 33771 ft | 461 kts | 268° |
| 2026-05-04 09:25 | 23.13471 | 73.87182 | 33756 ft | 462 kts | 269° |
| 2026-05-04 09:26 | 23.13129 | 73.80204 | 33756 ft | 463 kts | 269° |
| 2026-05-04 09:26 | 23.12783 | 73.73226 | 33746 ft | 463 kts | 269° |
| 2026-05-04 09:27 | 23.12433 | 73.66248 | 33744 ft | 463 kts | 269° |
| 2026-05-04 09:27 | 23.12138 | 73.60400 | 33727 ft | 463 kts | 269° |
| 2026-05-04 09:28 | 23.11782 | 73.53422 | 33732 ft | 463 kts | 269° |
| 2026-05-04 09:28 | 23.11425 | 73.46447 | 33730 ft | 462 kts | 269° |
| 2026-05-04 09:29 | 23.11064 | 73.39476 | 33722 ft | 462 kts | 269° |
| 2026-05-04 09:29 | 23.10703 | 73.32548 | 33720 ft | 462 kts | 269° |
| 2026-05-04 09:30 | 23.10336 | 73.25577 | 33719 ft | 462 kts | 269° |
| 2026-05-04 09:30 | 23.09966 | 73.18609 | 33716 ft | 462 kts | 269° |
| 2026-05-04 09:31 | 23.09593 | 73.11636 | 33713 ft | 462 kts | 269° |
| 2026-05-04 09:31 | 23.09217 | 73.04665 | 33723 ft | 462 kts | 269° |
| 2026-05-04 09:32 | 23.08838 | 72.97695 | 33724 ft | 463 kts | 269° |
| 2026-05-04 09:34 | 23.07290 | 72.69803 | 33717 ft | 463 kts | 269° |
| 2026-05-04 09:34 | 23.06877 | 72.62831 | 33721 ft | 463 kts | 268° |
| 2026-05-04 09:35 | 23.05965 | 72.55893 | 33720 ft | 465 kts | 265° |
| 2026-05-04 09:35 | 23.04964 | 72.48962 | 33717 ft | 465 kts | 265° |
| 2026-05-04 09:37 | 23.01038 | 72.21286 | 33709 ft | 464 kts | 265° |
| 2026-05-04 09:38 | 23.00052 | 72.14364 | 33704 ft | 464 kts | 265° |
| 2026-05-04 09:38 | 22.99064 | 72.07441 | 33703 ft | 464 kts | 265° |
| 2026-05-04 09:39 | 22.98073 | 72.00525 | 33711 ft | 464 kts | 265° |
| 2026-05-04 09:39 | 22.97079 | 71.93611 | 33715 ft | 464 kts | 265° |
| 2026-05-04 09:40 | 22.96082 | 71.86701 | 33704 ft | 463 kts | 265° |
| 2026-05-04 09:40 | 22.95084 | 71.79799 | 33711 ft | 463 kts | 265° |
| 2026-05-04 09:42 | 22.91068 | 71.52248 | 33721 ft | 463 kts | 265° |
| 2026-05-04 09:43 | 22.90055 | 71.45356 | 33729 ft | 463 kts | 265° |
| 2026-05-04 09:43 | 22.89040 | 71.38466 | 33729 ft | 463 kts | 265° |
| 2026-05-04 09:44 | 22.88021 | 71.31575 | 33730 ft | 463 kts | 265° |
| 2026-05-04 09:46 | 22.83918 | 71.04023 | 33744 ft | 463 kts | 265° |
| 2026-05-04 09:46 | 22.82885 | 70.97138 | 33751 ft | 463 kts | 265° |
| 2026-05-04 09:47 | 22.81850 | 70.90252 | 33753 ft | 463 kts | 265° |
| 2026-05-04 09:49 | 22.81882 | 70.66250 | 33757 ft | 455 kts | 278° |
| 2026-05-04 09:49 | 22.82105 | 70.62830 | 33759 ft | 455 kts | 278° |
| 2026-05-04 09:51 | 22.83605 | 70.38861 | 33761 ft | 455 kts | 278° |
| 2026-05-04 09:51 | 22.84023 | 70.32075 | 33755 ft | 453 kts | 278° |
| 2026-05-04 09:52 | 22.84442 | 70.25217 | 33749 ft | 452 kts | 278° |
| 2026-05-04 09:52 | 22.84852 | 70.18469 | 33746 ft | 451 kts | 278° |
| 2026-05-04 09:53 | 22.85261 | 70.11684 | 33741 ft | 451 kts | 278° |
| 2026-05-04 09:53 | 22.85668 | 70.04894 | 33746 ft | 451 kts | 278° |
| 2026-05-04 09:54 | 22.86072 | 69.98094 | 33746 ft | 452 kts | 278° |
| 2026-05-04 09:54 | 22.86474 | 69.91286 | 33742 ft | 453 kts | 278° |
| 2026-05-04 09:55 | 22.86874 | 69.84466 | 33735 ft | 454 kts | 277° |
| 2026-05-04 09:55 | 22.87271 | 69.77636 | 33737 ft | 454 kts | 277° |
| 2026-05-04 09:56 | 22.87666 | 69.70799 | 33735 ft | 455 kts | 277° |
| 2026-05-04 09:56 | 22.88090 | 69.63957 | 33739 ft | 455 kts | 278° |
| 2026-05-04 09:57 | 22.88541 | 69.57118 | 33738 ft | 455 kts | 278° |
| 2026-05-04 09:57 | 22.88987 | 69.50280 | 33721 ft | 455 kts | 278° |
| 2026-05-04 09:58 | 22.89426 | 69.43444 | 33725 ft | 454 kts | 277° |
| 2026-05-04 09:58 | 22.89860 | 69.36608 | 33724 ft | 455 kts | 277° |
| 2026-05-04 10:00 | 22.91563 | 69.09292 | 33720 ft | 454 kts | 277° |
| 2026-05-04 10:04 | 22.94430 | 68.61515 | 33710 ft | 452 kts | 277° |
| 2026-05-04 10:04 | 22.94826 | 68.54718 | 33712 ft | 451 kts | 277° |
| 2026-05-04 10:05 | 22.95220 | 68.47918 | 33706 ft | 452 kts | 277° |
| 2026-05-04 10:05 | 22.95609 | 68.41160 | 33713 ft | 452 kts | 277° |
| 2026-05-04 10:06 | 22.95846 | 68.34335 | 33713 ft | 454 kts | 274° |
| 2026-05-04 10:06 | 22.95838 | 68.27484 | 33711 ft | 454 kts | 273° |
| 2026-05-04 10:08 | 22.95816 | 68.03458 | 33708 ft | 455 kts | 273° |
| 2026-05-04 10:08 | 22.95812 | 67.96590 | 33709 ft | 455 kts | 273° |
| 2026-05-04 10:09 | 22.95804 | 67.89724 | 33706 ft | 455 kts | 273° |
| 2026-05-04 10:09 | 22.95803 | 67.82860 | 33706 ft | 455 kts | 274° |
| 2026-05-04 10:10 | 22.95821 | 67.76001 | 33709 ft | 455 kts | 274° |
| 2026-05-04 10:10 | 22.95839 | 67.69141 | 33709 ft | 454 kts | 274° |
| 2026-05-04 10:11 | 22.95851 | 67.62285 | 33708 ft | 454 kts | 274° |
| 2026-05-04 10:11 | 22.95858 | 67.55431 | 33710 ft | 454 kts | 274° |
| 2026-05-04 10:12 | 22.95862 | 67.48574 | 33706 ft | 455 kts | 273° |
| 2026-05-04 10:12 | 22.95864 | 67.41757 | 33705 ft | 455 kts | 273° |
| 2026-05-04 10:13 | 22.95863 | 67.34889 | 33709 ft | 456 kts | 273° |
| 2026-05-04 10:13 | 22.95858 | 67.28012 | 33711 ft | 456 kts | 273° |
| 2026-05-04 10:14 | 22.95851 | 67.21133 | 33701 ft | 456 kts | 273° |
| 2026-05-04 10:16 | 22.95801 | 66.93615 | 33720 ft | 456 kts | 274° |
| 2026-05-04 10:16 | 22.95843 | 66.86743 | 33707 ft | 455 kts | 274° |
| 2026-05-04 10:17 | 22.95894 | 66.79882 | 33716 ft | 455 kts | 274° |